Hauptseite
METAR-TAF:

METAR-TAF

Flughäfen :

Flughafen Dakar-Léopold Sédar Senghor

Dakar, Senegal

Breite: 14-44N, Länge: 017-30W, Höhe: 27 m

Beobachtung

Neuester Wetterbericht von vor 1 Stunde und 41 Minuten, um 19:00 UTC
Wind 6 kt aus Nord/Nordwest
Temperatur 22°C
Luftfeuchtigkeit 83%
Luftdruck 1011 hPa
Sichtweite 10 km oder mehr
keine Wolken unter 1500 m und keine Kumulonimbus oder Gewitterwolken

METAR: GOOY 251900Z 34006KT CAVOK 22/19 Q1011

Zeit: 20:41 (20:41 UTC)

Prognose

Neuester Wetterbericht von vor 3 Stunden und 11 Minuten, um 17:30 UTC
Gültige Prognose vom 25 um 18 UTC bis 26 um 24 UTC
Wind 10 kt aus Nord
Sichtweite 10 km oder mehr
keine Wolken unter 1500 m und keine Kumulonimbus oder Gewitterwolken

TAF: GOOY 251730Z 2518/2624 35010KT CAVOK

Wetterbeobachtungen und Prognosen von mehr als 4000 Flughäfen (METAR und TAF Bericht).

Die verfügbaren Stationen werden durch gelbe und rote Markierungen auf der Karte dargestellt.

Führen Sie die Maus auf sie, um den Namen der Station zu sehen.

Darauf klicken, um die Beobachtung von Wetterbeobachtungen und Prognosen zu sehen.

Um die Karte zu ändern : klicken Sie auf den grünen Tasten mit einem schwarzen Kreuz Zum Vergrößern, auf den grünen Button mit einem Gedankenstrich zu verkleinern, oder auf die grünen Pfeile für benachbarte Karten.


METAR-TAF: